Time;durP1;ratioP1;P1;durP2;ratioP2;P2;SDS_P1;SDS_P2;PMS_P1;PMS_P2;Temp;Humidity;BMP_temperature;BMP_pressure;BME280_temperature;BME280_humidity;BME280_pressure;Samples;Min_cycle;Max_cycle;Signal;HPM_P1;HPM_P2
2021/04/23 00:01:43;;;;;;;10.85;4.13;;;6.10;38.10;;;;;;6124295;23;20192;-74
2021/04/23 00:04:09;;;;;;;10.82;5.97;;;6.10;37.90;;;;;;6124716;23;20208;-73
2021/04/23 00:06:39;;;;;;;9.43;5.20;;;5.90;38.50;;;;;;6127685;23;20195;-74
2021/04/23 00:09:10;;;;;;;12.20;4.95;;;5.90;38.90;;;;;;6130726;23;20220;-73
2021/04/23 00:11:39;;;;;;;6.55;4.47;;;5.80;39.20;;;;;;6133788;23;20204;-74
2021/04/23 00:14:07;;;;;;;7.90;4.70;;;5.80;39.40;;;;;;6132996;23;20399;-74
2021/04/23 00:16:33;;;;;;;8.68;4.50;;;5.70;39.60;;;;;;6125337;23;20189;-74
2021/04/23 00:19:00;;;;;;;11.20;5.20;;;5.60;40.10;;;;;;6124239;23;20453;-74
2021/04/23 00:21:26;;;;;;;9.98;4.63;;;5.50;40.70;;;;;;6123169;23;20272;-74
2021/04/23 00:23:53;;;;;;;7.63;4.65;;;5.50;41.50;;;;;;6123838;23;20247;-73
2021/04/23 00:26:20;;;;;;;8.75;4.40;;;5.50;40.80;;;;;;6123959;23;20219;-73
2021/04/23 00:28:47;;;;;;;9.70;4.70;;;5.50;40.50;;;;;;6123826;23;20259;-74
2021/04/23 00:31:14;;;;;;;5.38;3.70;;;5.50;41.40;;;;;;6123884;23;20219;-73
2021/04/23 00:33:40;;;;;;;11.07;4.50;;;5.40;41.40;;;;;;6123907;23;20540;-73
2021/04/23 00:36:09;;;;;;;7.93;4.93;;;5.30;41.80;;;;;;6124340;23;20224;-73
2021/04/23 00:38:37;;;;;;;8.63;4.40;;;5.20;41.70;;;;;;6124914;23;20223;-74
2021/04/23 00:41:06;;;;;;;10.80;5.28;;;5.20;42.20;;;;;;6124120;23;20192;-73
2021/04/23 00:43:36;;;;;;;9.35;4.45;;;5.10;41.90;;;;;;6123094;23;20517;-74
2021/04/23 00:46:04;;;;;;;6.65;4.50;;;5.00;42.90;;;;;;6126368;23;20236;-73
2021/04/23 00:48:33;;;;;;;10.43;4.90;;;5.10;42.60;;;;;;6123743;23;20232;-73
2021/04/23 00:51:05;;;;;;;7.88;4.55;;;5.00;43.00;;;;;;6127559;23;20192;-73
2021/04/23 00:53:34;;;;;;;10.25;4.63;;;4.90;42.70;;;;;;6130104;23;20204;-73
2021/04/23 00:56:06;;;;;;;8.45;4.90;;;4.90;43.40;;;;;;6126110;23;20243;-73
2021/04/23 00:58:33;;;;;;;7.70;4.40;;;4.90;43.00;;;;;;6125204;23;20179;-72
2021/04/23 01:01:01;;;;;;;7.68;4.38;;;4.90;42.40;;;;;;6125143;23;20297;-74
2021/04/23 01:03:30;;;;;;;12.02;5.18;;;4.90;42.70;;;;;;6125398;23;20236;-73
2021/04/23 01:05:58;;;;;;;20.88;4.40;;;4.90;43.00;;;;;;6125117;23;20185;-73
2021/04/23 01:08:27;;;;;;;13.00;4.90;;;4.80;42.90;;;;;;6125481;23;20339;-73
2021/04/23 01:10:55;;;;;;;11.82;4.95;;;4.80;43.30;;;;;;6125109;23;20478;-74
2021/04/23 01:13:25;;;;;;;10.95;4.57;;;4.70;43.80;;;;;;6124778;23;20567;-75
2021/04/23 01:15:51;;;;;;;9.75;4.55;;;4.70;43.50;;;;;;6126917;23;20165;-73
2021/04/23 01:18:18;;;;;;;10.43;4.60;;;4.70;43.20;;;;;;6127388;23;20252;-74
2021/04/23 01:20:45;;;;;;;8.93;4.30;;;4.80;42.70;;;;;;6127338;23;20185;-74
2021/04/23 01:23:12;;;;;;;8.40;4.10;;;4.80;43.10;;;;;;6125983;23;20260;-73
2021/04/23 01:25:40;;;;;;;8.00;4.25;;;4.70;43.10;;;;;;6126243;23;20203;-74
2021/04/23 01:28:07;;;;;;;7.38;3.97;;;4.60;43.00;;;;;;6125058;23;20184;-74
2021/04/23 01:30:33;;;;;;;9.25;4.80;;;4.50;43.30;;;;;;6126610;23;20621;-73
2021/04/23 01:33:00;;;;;;;7.63;4.15;;;4.40;44.00;;;;;;6126365;23;20315;-75
2021/04/23 01:35:26;;;;;;;6.50;4.22;;;4.30;45.30;;;;;;6132714;23;20211;-72
2021/04/23 01:37:53;;;;;;;7.47;4.10;;;4.30;45.30;;;;;;6126706;23;20180;-73
2021/04/23 01:40:22;;;;;;;8.90;4.38;;;4.30;45.30;;;;;;6127784;23;20185;-73
2021/04/23 01:42:49;;;;;;;6.72;4.43;;;4.20;45.20;;;;;;6126367;23;20268;-73
2021/04/23 01:45:18;;;;;;;11.65;4.30;;;4.10;45.10;;;;;;6126077;23;20694;-73
2021/04/23 01:47:44;;;;;;;8.23;3.95;;;4.10;45.50;;;;;;6125710;23;20185;-73
2021/04/23 01:50:16;;;;;;;8.85;4.53;;;4.10;45.10;;;;;;6126984;23;20251;-72
2021/04/23 01:52:42;;;;;;;5.68;4.22;;;4.20;45.20;;;;;;6124308;23;20168;-73
2021/04/23 01:55:11;;;;;;;7.70;4.90;;;4.10;45.10;;;;;;6124753;23;20240;-72
2021/04/23 01:57:38;;;;;;;8.95;4.25;;;4.10;45.80;;;;;;6127525;23;20172;-73
2021/04/23 02:00:12;;;;;;;10.13;5.35;;;4.00;46.70;;;;;;6125754;23;20276;-72
2021/04/23 02:02:38;;;;;;;7.25;4.65;;;3.90;48.40;;;;;;6126436;23;20232;-73
2021/04/23 02:05:07;;;;;;;10.52;4.90;;;3.80;49.20;;;;;;6126243;23;20279;-73
2021/04/23 02:07:34;;;;;;;8.13;4.03;;;3.80;50.30;;;;;;6127495;23;20364;-73
2021/04/23 02:10:00;;;;;;;10.52;4.85;;;3.80;51.10;;;;;;6127573;23;20227;-73
2021/04/23 02:12:27;;;;;;;13.68;4.82;;;3.80;51.80;;;;;;6137828;23;20184;-72
2021/04/23 02:14:54;;;;;;;8.60;5.00;;;3.70;52.60;;;;;;6150109;23;20213;-74
2021/04/23 02:17:21;;;;;;;8.73;5.20;;;3.70;52.70;;;;;;6150527;23;20409;-73
2021/04/23 02:19:47;;;;;;;10.05;5.90;;;3.60;53.40;;;;;;6149920;23;20224;-73
2021/04/23 02:22:14;;;;;;;6.93;5.47;;;3.60;53.30;;;;;;6129341;23;20185;-73
2021/04/23 02:24:40;;;;;;;8.57;4.85;;;3.60;54.10;;;;;;6127350;23;20245;-74
2021/04/23 02:27:07;;;;;;;9.05;4.95;;;3.60;54.10;;;;;;6141438;23;20184;-72
2021/04/23 02:29:33;;;;;;;9.23;4.95;;;3.60;54.10;;;;;;6150349;23;20183;-72
2021/04/23 02:32:00;;;;;;;7.35;4.63;;;3.50;54.00;;;;;;6151214;23;20179;-72
2021/04/23 02:34:28;;;;;;;11.60;5.43;;;3.60;54.10;;;;;;6150265;23;20268;-73
2021/04/23 02:36:55;;;;;;;6.95;4.40;;;3.60;54.10;;;;;;6150587;23;20279;-72
2021/04/23 02:39:39;;;;;;;11.98;5.03;;;3.60;54.10;;;;;;6134439;23;20192;-72
2021/04/23 02:42:06;;;;;;;13.25;5.38;;;3.50;54.00;;;;;;6127521;23;20162;-73
2021/04/23 02:44:41;;;;;;;7.72;4.38;;;3.40;53.90;;;;;;6128241;23;20228;-73
2021/04/23 02:47:09;;;;;;;10.55;4.85;;;3.40;53.90;;;;;;6125001;23;20216;-73
2021/04/23 02:49:35;;;;;;;7.93;5.22;;;3.30;54.10;;;;;;6127111;23;20227;-72
2021/04/23 02:52:01;;;;;;;12.02;5.13;;;3.30;54.90;;;;;;6129038;23;20220;-73
2021/04/23 02:54:28;;;;;;;10.43;5.05;;;3.40;55.20;;;;;;6127243;23;20283;-74
2021/04/23 02:56:55;;;;;;;7.90;4.72;;;3.30;55.60;;;;;;6124376;23;20564;-73
2021/04/23 02:59:21;;;;;;;8.52;4.53;;;3.30;55.60;;;;;;6124432;23;20319;-74
2021/04/23 03:01:51;;;;;;;12.48;5.20;;;3.30;55.50;;;;;;6124272;23;20287;-73
2021/04/23 03:04:18;;;;;;;10.30;4.05;;;3.30;55.40;;;;;;6124266;23;20583;-73
2021/04/23 03:06:45;;;;;;;7.22;5.10;;;3.20;55.50;;;;;;6124069;23;20177;-73
2021/04/23 03:09:12;;;;;;;9.25;5.20;;;3.30;56.10;;;;;;6123619;23;20185;-72
2021/04/23 03:11:41;;;;;;;6.93;5.15;;;3.20;56.70;;;;;;6123250;23;20208;-73
2021/04/23 03:14:08;;;;;;;12.48;6.78;;;3.20;56.00;;;;;;6123923;23;20240;-73
2021/04/23 03:16:37;;;;;;;9.75;5.25;;;3.00;56.30;;;;;;6123707;23;20259;-73
2021/04/23 03:19:09;;;;;;;13.73;4.97;;;3.00;56.10;;;;;;6125410;23;20247;-72
2021/04/23 03:21:36;;;;;;;9.68;4.55;;;3.10;55.90;;;;;;6129092;23;20204;-72
2021/04/23 03:24:04;;;;;;;11.75;4.40;;;3.00;56.00;;;;;;6130212;23;20272;-73
2021/04/23 03:26:30;;;;;;;12.60;4.78;;;3.00;55.60;;;;;;6132291;23;20800;-73
2021/04/23 03:28:56;;;;;;;9.77;4.95;;;3.10;54.10;;;;;;6127050;23;20570;-74
2021/04/23 03:31:23;;;;;;;6.53;4.40;;;3.10;53.70;;;;;;6127570;23;20192;-73
2021/04/23 03:33:50;;;;;;;11.60;5.65;;;3.20;53.80;;;;;;6126135;23;20240;-74
2021/04/23 03:36:16;;;;;;;8.18;5.25;;;3.20;53.80;;;;;;6126217;23;20184;-73
2021/04/23 03:38:47;;;;;;;8.38;4.00;;;3.20;53.60;;;;;;6127683;23;20185;-74
2021/04/23 03:41:17;;;;;;;6.45;4.50;;;3.20;52.80;;;;;;6129434;23;20216;-72
2021/04/23 03:43:44;;;;;;;9.90;4.85;;;3.20;52.80;;;;;;6125963;23;20268;-72
2021/04/23 03:46:11;;;;;;;6.82;4.90;;;3.10;52.90;;;;;;6126777;23;20184;-73
2021/04/23 03:48:37;;;;;;;9.02;4.82;;;3.10;53.70;;;;;;6125422;23;20196;-73
2021/04/23 03:51:05;;;;;;;8.18;4.53;;;3.10;53.70;;;;;;6124733;23;20523;-73
2021/04/23 03:53:32;;;;;;;11.60;4.65;;;3.10;53.10;;;;;;6123910;23;20205;-72
2021/04/23 03:56:00;;;;;;;8.30;4.57;;;3.00;53.20;;;;;;6123702;23;20778;-72
2021/04/23 03:58:26;;;;;;;11.40;4.60;;;3.00;53.60;;;;;;6124401;23;20235;-73
2021/04/23 04:00:55;;;;;;;7.05;4.20;;;3.00;53.60;;;;;;6127756;23;20323;-73
2021/04/23 04:03:23;;;;;;;12.07;4.40;;;3.00;53.60;;;;;;6130796;23;20263;-73
2021/04/23 04:05:50;;;;;;;8.93;4.78;;;3.00;54.30;;;;;;6129092;23;20191;-73
2021/04/23 04:08:16;;;;;;;8.35;4.68;;;3.00;53.50;;;;;;6125183;23;20180;-73
2021/04/23 04:10:43;;;;;;;9.98;4.22;;;2.80;53.40;;;;;;6124258;23;20654;-73
2021/04/23 04:13:10;;;;;;;8.05;4.30;;;2.70;53.30;;;;;;6124090;23;20180;-73
2021/04/23 04:15:38;;;;;;;8.20;4.70;;;2.70;54.00;;;;;;6123544;23;20231;-73
2021/04/23 04:18:06;;;;;;;6.93;4.50;;;2.70;54.10;;;;;;6124131;23;20187;-73
2021/04/23 04:20:34;;;;;;;11.50;4.68;;;2.70;54.60;;;;;;6124268;23;20264;-74
2021/04/23 04:23:00;;;;;;;7.75;4.85;;;2.70;54.10;;;;;;6123917;23;20216;-73
2021/04/23 04:25:29;;;;;;;10.57;4.38;;;2.60;54.70;;;;;;6125772;23;20279;-73
2021/04/23 04:27:56;;;;;;;6.05;4.50;;;2.50;55.30;;;;;;6126109;23;20288;-72
2021/04/23 04:30:25;;;;;;;9.13;4.60;;;2.70;54.60;;;;;;6126000;23;20235;-73
2021/04/23 04:32:53;;;;;;;9.07;4.22;;;2.70;54.30;;;;;;6124783;23;20223;-74
2021/04/23 04:35:20;;;;;;;7.85;4.38;;;2.70;54.10;;;;;;6125314;23;20675;-74
2021/04/23 04:37:46;;;;;;;11.90;4.57;;;2.70;53.50;;;;;;6125480;23;20701;-73
2021/04/23 04:40:15;;;;;;;7.90;4.43;;;2.70;53.40;;;;;;6124902;23;20273;-73
2021/04/23 04:42:41;;;;;;;7.53;4.05;;;2.70;53.40;;;;;;6125669;23;20251;-73
2021/04/23 04:45:11;;;;;;;7.93;3.88;;;2.80;53.40;;;;;;6125533;23;20203;-74
2021/04/23 04:47:39;;;;;;;5.75;3.50;;;2.90;53.50;;;;;;6125329;23;20191;-73
2021/04/23 04:50:10;;;;;;;8.52;4.05;;;3.00;52.70;;;;;;6125030;23;20216;-74
2021/04/23 04:52:36;;;;;;;13.20;4.45;;;3.20;51.40;;;;;;6124628;23;20177;-74
2021/04/23 04:55:05;;;;;;;7.32;3.65;;;3.50;49.50;;;;;;6125177;23;20288;-74
2021/04/23 04:57:33;;;;;;;10.77;4.40;;;3.80;48.10;;;;;;6125392;23;20231;-73
2021/04/23 04:59:59;;;;;;;8.63;4.05;;;4.00;47.20;;;;;;6125738;23;20235;-73
2021/04/23 05:02:26;;;;;;;12.00;4.35;;;4.40;46.20;;;;;;6125024;23;20268;-73
2021/04/23 05:04:53;;;;;;;10.10;5.00;;;4.60;45.50;;;;;;6125665;23;20702;-73
2021/04/23 05:07:20;;;;;;;9.15;5.03;;;4.70;45.60;;;;;;6125722;23;20259;-73
2021/04/23 05:09:46;;;;;;;13.63;4.88;;;4.80;45.00;;;;;;6125719;23;20698;-73
2021/04/23 05:12:12;;;;;;;10.32;4.47;;;4.70;45.60;;;;;;6125468;23;20208;-73
2021/04/23 05:14:39;;;;;;;7.88;4.00;;;4.90;45.30;;;;;;6125065;23;20334;-73
2021/04/23 05:17:05;;;;;;;7.32;4.63;;;4.70;45.60;;;;;;6125768;23;20191;-72
2021/04/23 05:19:31;;;;;;;7.10;4.30;;;4.90;45.10;;;;;;6125897;23;20208;-73
2021/04/23 05:21:59;;;;;;;7.78;4.32;;;4.70;44.70;;;;;;6125812;23;20180;-75
2021/04/23 05:24:25;;;;;;;7.88;4.93;;;4.90;44.30;;;;;;6132447;23;20200;-72
2021/04/23 05:26:52;;;;;;;6.65;4.30;;;5.20;43.70;;;;;;6126913;23;20180;-73
2021/04/23 05:29:18;;;;;;;8.70;4.90;;;5.10;43.10;;;;;;6125384;23;20212;-73
2021/04/23 05:31:44;;;;;;;6.57;4.00;;;5.00;44.00;;;;;;6125131;23;20180;-73
2021/04/23 05:34:11;;;;;;;8.45;4.50;;;5.60;42.50;;;;;;6124687;23;20729;-73
2021/04/23 05:36:38;;;;;;;10.25;4.93;;;6.00;40.90;;;;;;6125223;23;20191;-74
2021/04/23 05:39:05;;;;;;;8.77;5.03;;;6.20;40.00;;;;;;6125220;23;20185;-74
2021/04/23 05:41:32;;;;;;;17.05;6.00;;;6.00;40.40;;;;;;6125225;23;20255;-74
2021/04/23 05:43:58;;;;;;;11.65;5.10;;;5.80;41.20;;;;;;6126164;23;20207;-73
2021/04/23 05:46:24;;;;;;;9.80;4.90;;;5.90;41.10;;;;;;6125896;23;20194;-73
2021/04/23 05:48:51;;;;;;;6.05;4.18;;;6.20;40.80;;;;;;6126373;23;20185;-74
2021/04/23 05:51:18;;;;;;;7.85;4.40;;;7.10;38.00;;;;;;6125192;23;20635;-74
2021/04/23 05:53:44;;;;;;;7.72;4.35;;;7.20;38.10;;;;;;6124119;23;20205;-74
2021/04/23 05:56:11;;;;;;;7.32;4.78;;;7.70;36.40;;;;;;6125407;23;20208;-73
2021/04/23 05:58:38;;;;;;;7.22;4.00;;;8.30;34.30;;;;;;6125159;23;20207;-73
2021/04/23 06:01:04;;;;;;;6.63;4.55;;;8.50;33.00;;;;;;6124621;23;20212;-74
2021/04/23 06:03:30;;;;;;;6.45;4.75;;;7.70;34.80;;;;;;6124440;23;20253;-73
2021/04/23 06:05:57;;;;;;;10.38;4.55;;;8.20;33.90;;;;;;6124533;23;20180;-73
2021/04/23 06:08:24;;;;;;;11.65;4.30;;;8.70;32.80;;;;;;6124924;23;20304;-74
2021/04/23 06:10:50;;;;;;;6.93;4.35;;;9.10;32.20;;;;;;6124849;23;20584;-72
2021/04/23 06:13:18;;;;;;;10.38;4.50;;;9.30;31.40;;;;;;6124051;23;20260;-72
2021/04/23 06:15:45;;;;;;;6.63;4.38;;;9.30;31.20;;;;;;6103230;23;20276;-78
2021/04/23 06:18:13;;;;;;;13.77;4.93;;;9.80;30.30;;;;;;6106894;23;20225;-79
2021/04/23 06:20:41;;;;;;;7.47;4.70;;;9.70;30.20;;;;;;6103438;23;20186;-79
2021/04/23 06:23:07;;;;;;;6.75;4.20;;;9.70;30.20;;;;;;6104387;23;20192;-78
2021/04/23 06:25:34;;;;;;;11.02;5.10;;;8.30;32.30;;;;;;6119914;23;20189;-80
2021/04/23 06:28:09;;;;;;;11.63;5.25;;;8.10;33.20;;;;;;6122173;23;20192;-81
2021/04/23 06:30:39;;;;;;;8.80;5.90;;;7.80;34.70;;;;;;6119301;23;20172;-81
2021/04/23 06:33:14;;;;;;;8.68;4.30;;;7.70;35.10;;;;;;6122215;23;20179;-79
2021/04/23 06:35:41;;;;;;;8.27;4.35;;;7.50;35.40;;;;;;6123437;23;20199;-80
2021/04/23 06:38:07;;;;;;;11.15;4.75;;;7.50;34.80;;;;;;6121647;23;20180;-79
2021/04/23 06:40:35;;;;;;;7.10;4.63;;;7.20;35.90;;;;;;6122542;23;20176;-79
2021/04/23 06:43:01;;;;;;;8.90;5.18;;;7.00;37.10;;;;;;6122940;23;20169;-79
2021/04/23 06:45:28;;;;;;;13.43;5.20;;;7.20;36.40;;;;;;6117567;23;20239;-78
2021/04/23 06:47:56;;;;;;;8.40;4.65;;;7.20;36.00;;;;;;6117377;23;20185;-80
2021/04/23 06:50:24;;;;;;;11.45;4.25;;;7.10;36.20;;;;;;6122842;23;20158;-78
2021/04/23 06:52:53;;;;;;;9.65;4.80;;;7.10;36.20;;;;;;6123572;23;20173;-78
2021/04/23 06:55:21;;;;;;;7.43;4.60;;;7.00;36.60;;;;;;6124142;23;20204;-78
2021/04/23 06:57:48;;;;;;;8.77;5.07;;;7.10;36.60;;;;;;6124783;23;20162;-79
2021/04/23 07:00:17;;;;;;;16.00;5.57;;;7.30;36.00;;;;;;6122913;23;20180;-80
2021/04/23 07:03:04;;;;;;;8.10;4.90;;;7.40;35.30;;;;;;6109651;23;20563;-77
2021/04/23 07:05:30;;;;;;;6.80;4.55;;;7.70;35.30;;;;;;6101383;23;20523;-78
2021/04/23 07:07:58;;;;;;;8.75;4.43;;;7.80;35.10;;;;;;6101204;23;20182;-79
2021/04/23 07:10:26;;;;;;;7.13;4.88;;;8.10;34.80;;;;;;6102052;23;20177;-79
2021/04/23 07:12:53;;;;;;;6.78;4.20;;;8.10;33.60;;;;;;6101670;23;20189;-80
2021/04/23 07:15:22;;;;;;;8.30;5.55;;;8.30;34.00;;;;;;6102581;23;20216;-80
2021/04/23 07:17:49;;;;;;;8.88;4.90;;;8.50;33.70;;;;;;6102558;23;20205;-81
2021/04/23 07:20:17;;;;;;;13.77;5.38;;;8.40;33.30;;;;;;6101794;23;20181;-79
2021/04/23 07:22:43;;;;;;;18.60;6.65;;;8.50;33.20;;;;;;6102110;23;20205;-80
2021/04/23 07:25:11;;;;;;;10.32;5.90;;;8.60;32.80;;;;;;6100725;23;20201;-78
2021/04/23 07:27:38;;;;;;;13.43;5.53;;;8.50;33.40;;;;;;6104517;23;20243;-81
2021/04/23 07:30:06;;;;;;;11.63;4.63;;;8.80;33.20;;;;;;6105591;23;20205;-79
2021/04/23 07:32:32;;;;;;;8.75;4.50;;;9.10;32.80;;;;;;6101877;23;20185;-81
2021/04/23 07:34:59;;;;;;;8.38;5.20;;;9.20;32.60;;;;;;6102744;23;20288;-82
2021/04/23 07:37:26;;;;;;;8.48;5.18;;;9.40;32.20;;;;;;6104755;23;20232;-81
2021/04/23 07:39:53;;;;;;;12.90;5.60;;;9.60;31.00;;;;;;6104501;23;20213;-80
2021/04/23 07:42:19;;;;;;;9.85;5.43;;;9.40;31.70;;;;;;6108435;23;20177;-82
2021/04/23 07:44:46;;;;;;;11.55;4.97;;;9.50;31.90;;;;;;6106603;23;20208;-81
2021/04/23 07:47:12;;;;;;;10.82;4.85;;;9.60;31.60;;;;;;6103850;23;20644;-81
2021/04/23 07:49:40;;;;;;;10.50;5.07;;;9.80;31.60;;;;;;6106203;23;20219;-80
2021/04/23 07:52:06;;;;;;;9.13;5.30;;;9.90;30.40;;;;;;6105115;23;20223;-80
2021/04/23 07:54:34;;;;;;;9.60;5.65;;;10.00;29.70;;;;;;6107839;23;20224;-81
2021/04/23 07:57:00;;;;;;;6.10;5.53;;;10.00;29.70;;;;;;6115395;23;20174;-80
2021/04/23 07:59:27;;;;;;;10.63;5.10;;;10.10;29.70;;;;;;6121988;23;20211;-80
2021/04/23 08:01:55;;;;;;;8.80;4.55;;;10.30;29.90;;;;;;6120511;23;20181;-80
2021/04/23 08:04:22;;;;;;;7.22;5.10;;;10.30;29.90;;;;;;6111204;23;20746;-80
2021/04/23 08:06:49;;;;;;;8.30;5.55;;;10.50;30.00;;;;;;6104842;23;20598;-80
2021/04/23 08:09:15;;;;;;;11.25;5.70;;;10.60;30.00;;;;;;6105374;23;20201;-80
2021/04/23 08:11:42;;;;;;;8.32;6.07;;;10.70;29.40;;;;;;6103634;23;20192;-80
2021/04/23 08:14:09;;;;;;;9.35;5.35;;;10.90;28.90;;;;;;6101612;23;20201;-77
2021/04/23 08:16:36;;;;;;;12.65;6.63;;;11.00;28.90;;;;;;6099723;23;20177;-78
2021/04/23 08:19:02;;;;;;;12.38;5.93;;;11.00;28.60;;;;;;6109878;23;20232;-81
2021/04/23 08:21:29;;;;;;;13.52;5.50;;;11.20;28.30;;;;;;6110308;23;20186;-79
2021/04/23 08:23:55;;;;;;;11.18;5.28;;;11.20;27.70;;;;;;6111049;23;20201;-78
2021/04/23 08:26:24;;;;;;;10.07;5.22;;;11.30;27.00;;;;;;6100920;23;20185;-79
2021/04/23 08:28:52;;;;;;;8.63;5.68;;;11.20;27.20;;;;;;6097988;23;20177;-80
2021/04/23 08:31:20;;;;;;;12.70;5.47;;;11.00;27.60;;;;;;6099219;23;20188;-78
2021/04/23 08:33:47;;;;;;;12.93;5.53;;;11.30;27.40;;;;;;6097855;23;20673;-77
2021/04/23 08:38:41;;;;;;;7.25;4.75;;;11.60;26.20;;;;;;6064002;23;20202;-74
2021/04/23 08:41:11;;;;;;;11.95;5.47;;;11.80;26.30;;;;;;6071251;23;20555;-75
2021/04/23 08:43:37;;;;;;;13.70;5.70;;;11.80;25.50;;;;;;6067905;23;20699;-74
2021/04/23 08:46:04;;;;;;;12.25;6.00;;;11.90;25.60;;;;;;6079206;23;20182;-74
2021/04/23 08:48:33;;;;;;;8.27;5.47;;;11.90;25.20;;;;;;6082099;23;20213;-75
2021/04/23 08:51:00;;;;;;;8.80;5.75;;;12.00;24.80;;;;;;6071437;23;20198;-75
2021/04/23 08:53:27;;;;;;;11.80;5.68;;;12.10;24.00;;;;;;6067590;23;20243;-75
2021/04/23 08:55:54;;;;;;;12.20;5.45;;;12.30;24.10;;;;;;6066490;23;20198;-73
2021/04/23 08:58:21;;;;;;;13.13;5.70;;;12.40;24.40;;;;;;6068097;23;20285;-76
2021/04/23 09:00:48;;;;;;;17.73;5.68;;;12.10;25.00;;;;;;6067737;23;20262;-75
2021/04/23 09:03:19;;;;;;;12.77;6.63;;;12.20;24.80;;;;;;6068506;23;20189;-73
2021/04/23 09:06:07;;;;;;;9.60;5.78;;;12.20;23.80;;;;;;6066534;23;20162;-74
2021/04/23 09:08:34;;;;;;;12.25;7.00;;;12.10;23.80;;;;;;6066819;23;20205;-74
2021/04/23 09:11:14;;;;;;;11.23;5.95;;;12.20;23.90;;;;;;6067182;23;20567;-75
2021/04/23 09:13:53;;;;;;;10.35;5.40;;;12.40;23.40;;;;;;6068965;23;20169;-75
2021/04/23 09:16:21;;;;;;;11.93;6.00;;;12.30;23.70;;;;;;6068518;23;20224;-74
2021/04/23 09:18:49;;;;;;;9.70;6.00;;;12.30;23.70;;;;;;6073319;23;20258;-75
2021/04/23 09:21:16;;;;;;;11.00;6.65;;;12.40;23.90;;;;;;6075108;23;20237;-75
2021/04/23 09:23:47;;;;;;;13.13;6.40;;;12.80;23.70;;;;;;6069835;23;20648;-75
2021/04/23 09:26:32;;;;;;;12.65;5.40;;;13.20;24.00;;;;;;6073238;23;20237;-75
2021/04/23 09:28:59;;;;;;;10.23;6.30;;;13.10;23.90;;;;;;6071962;23;20177;-74
2021/04/23 09:31:27;;;;;;;8.95;5.70;;;13.00;23.80;;;;;;6070745;23;20217;-77
2021/04/23 09:33:56;;;;;;;13.65;6.72;;;13.30;23.20;;;;;;6073508;23;20224;-75
2021/04/23 09:36:27;;;;;;;10.43;5.75;;;13.10;23.90;;;;;;6070171;23;20193;-74
2021/04/23 09:39:08;;;;;;;15.70;6.43;;;13.20;24.00;;;;;;6070526;23;20186;-76
2021/04/23 09:41:35;;;;;;;10.30;5.95;;;13.40;23.20;;;;;;6068857;23;20177;-75
2021/04/23 09:44:02;;;;;;;14.30;6.50;;;13.50;23.00;;;;;;6069452;23;20265;-76
2021/04/23 09:46:36;;;;;;;10.70;6.55;;;13.70;23.40;;;;;;6068615;23;22419;-75
2021/04/23 09:49:17;;;;;;;10.88;6.43;;;13.50;22.90;;;;;;6069245;23;20228;-77
2021/04/23 09:51:44;;;;;;;13.13;6.25;;;13.20;22.90;;;;;;6070095;23;20189;-76
2021/04/23 09:54:17;;;;;;;14.88;6.10;;;13.60;23.10;;;;;;6068498;23;20261;-75
2021/04/23 09:56:44;;;;;;;9.35;5.45;;;13.80;22.70;;;;;;6068483;23;20298;-75
2021/04/23 09:59:20;;;;;;;8.60;5.57;;;14.00;21.60;;;;;;6071984;23;20186;-76
2021/04/23 10:01:55;;;;;;;12.88;6.68;;;13.80;21.30;;;;;;6075180;23;20229;-75
2021/04/23 10:04:25;;;;;;;13.60;5.93;;;13.60;21.30;;;;;;6075301;23;20176;-75
2021/04/23 10:07:13;;;;;;;12.18;5.78;;;13.80;21.50;;;;;;6086438;23;20217;-75
2021/04/23 10:09:50;;;;;;;8.65;6.13;;;14.10;21.50;;;;;;6079374;23;20193;-76
2021/04/23 10:12:32;;;;;;;11.98;6.00;;;13.90;21.80;;;;;;6070785;23;20502;-77
2021/04/23 10:15:00;;;;;;;12.75;5.95;;;14.10;21.80;;;;;;6070294;23;20197;-78
2021/04/23 10:17:26;;;;;;;11.85;5.65;;;14.30;21.10;;;;;;6069053;23;20244;-76
2021/04/23 10:19:54;;;;;;;10.80;6.05;;;14.40;20.60;;;;;;6069210;23;20266;-76
2021/04/23 10:22:21;;;;;;;11.10;6.07;;;14.40;20.40;;;;;;6069282;23;20185;-77
2021/04/23 10:24:49;;;;;;;13.40;6.30;;;14.60;20.50;;;;;;6069281;23;20208;-77
2021/04/23 10:27:15;;;;;;;15.88;6.63;;;14.60;19.40;;;;;;6067948;23;20684;-78
2021/04/23 10:29:45;;;;;;;12.30;5.93;;;14.10;20.00;;;;;;6069429;23;20662;-77
2021/04/23 10:32:12;;;;;;;12.02;5.75;;;13.80;20.30;;;;;;6069408;23;20241;-78
2021/04/23 10:34:39;;;;;;;6.82;5.47;;;14.00;20.00;;;;;;6069226;23;20658;-76
2021/04/23 10:37:06;;;;;;;11.07;5.35;;;14.40;20.30;;;;;;6068748;23;20282;-77
2021/04/23 10:39:35;;;;;;;9.40;5.30;;;14.80;19.10;;;;;;6068099;23;20499;-77
2021/04/23 10:42:02;;;;;;;9.10;5.22;;;15.10;17.80;;;;;;6073354;23;20186;-76
2021/04/23 10:44:58;;;;;;;12.20;6.50;;;14.90;19.50;;;;;;6076363;23;20178;-78
2021/04/23 10:47:31;;;;;;;9.43;6.40;;;14.70;18.60;;;;;;6078825;23;20206;-78
2021/04/23 10:50:12;;;;;;;15.55;6.22;;;14.60;18.20;;;;;;6079853;23;20201;-78
2021/04/23 10:53:01;;;;;;;10.32;5.65;;;14.60;18.10;;;;;;6085728;23;20185;-76
2021/04/23 10:55:46;;;;;;;7.75;5.40;;;14.80;18.40;;;;;;6084975;23;20190;-76
2021/04/23 10:58:14;;;;;;;12.63;6.07;;;15.10;17.50;;;;;;6083916;23;20281;-78
2021/04/23 11:00:44;;;;;;;11.03;6.00;;;15.30;17.30;;;;;;6082747;23;20406;-76
2021/04/23 11:03:29;;;;;;;8.33;5.23;;;15.40;17.40;;;;;;6085247;23;20892;-76
2021/04/23 11:05:58;;;;;;;12.60;5.90;;;15.00;17.20;;;;;;6088895;23;20406;-77
2021/04/23 11:08:26;;;;;;;12.43;5.82;;;15.20;17.60;;;;;;6077470;23;20457;-76
2021/04/23 11:11:16;;;;;;;9.33;5.70;;;15.00;17.00;;;;;;6070614;23;20236;-76
2021/04/23 11:13:46;;;;;;;11.55;6.43;;;14.70;16.80;;;;;;6076031;23;20822;-77
2021/04/23 11:16:34;;;;;;;9.35;5.53;;;15.00;17.00;;;;;;6078696;23;20206;-75
2021/04/23 11:19:33;;;;;;;12.17;6.23;;;15.20;17.20;;;;;;6083592;23;20189;-77
2021/04/23 11:22:12;;;;;;;11.38;5.20;;;15.30;17.30;;;;;;6075900;23;20823;-76
2021/04/23 11:24:59;;;;;;;8.80;5.77;;;15.40;17.30;;;;;;6075293;23;20182;-77
2021/04/23 11:27:25;;;;;;;8.13;5.87;;;15.70;16.80;;;;;;6074293;23;20408;-76
2021/04/23 11:30:09;;;;;;;9.83;6.03;;;15.80;16.10;;;;;;6071379;23;20481;-80
2021/04/23 11:32:52;;;;;;;11.03;5.40;;;15.90;15.80;;;;;;6076211;23;20906;-78
2021/04/23 11:35:20;;;;;;;10.40;4.90;;;15.80;14.80;;;;;;6068504;23;20750;-76
2021/04/23 11:37:54;;;;;;;8.37;4.90;;;15.80;14.60;;;;;;6068983;23;20827;-77
2021/04/23 11:40:26;;;;;;;7.80;4.97;;;15.80;14.20;;;;;;6069463;23;20464;-78
2021/04/23 11:42:54;;;;;;;9.10;5.57;;;15.70;14.10;;;;;;6070866;23;20380;-77
2021/04/23 11:45:23;;;;;;;8.97;4.90;;;15.80;13.70;;;;;;6069043;23;20209;-79
2021/04/23 11:47:51;;;;;;;11.27;6.03;;;15.90;14.50;;;;;;6069935;23;20421;-78
2021/04/23 11:50:20;;;;;;;11.33;5.73;;;16.00;14.60;;;;;;6070212;23;20425;-77
2021/04/23 11:52:48;;;;;;;9.57;5.67;;;16.10;14.50;;;;;;6068364;23;20431;-77
2021/04/23 11:55:19;;;;;;;8.40;5.37;;;16.10;14.90;;;;;;6067573;23;20478;-77
2021/04/23 11:57:49;;;;;;;10.70;6.90;;;16.30;14.40;;;;;;6067699;23;20488;-77
2021/04/23 12:00:18;;;;;;;10.90;5.30;;;16.20;14.00;;;;;;6068829;23;20466;-78
2021/04/23 12:02:49;;;;;;;11.90;4.80;;;16.00;14.10;;;;;;6068665;23;20409;-79
2021/04/23 12:05:31;;;;;;;8.87;4.80;;;16.00;13.60;;;;;;6068785;23;20394;-78
2021/04/23 12:08:00;;;;;;;6.97;4.90;;;16.10;13.10;;;;;;6075485;23;20389;-78
2021/04/23 12:10:29;;;;;;;9.07;4.60;;;16.00;13.60;;;;;;6073196;23;20807;-78
2021/04/23 12:12:56;;;;;;;5.47;4.60;;;15.70;12.70;;;;;;6081249;23;20416;-79
2021/04/23 12:15:32;;;;;;;7.20;4.80;;;15.60;12.70;;;;;;6088583;23;20488;-77
2021/04/23 12:18:00;;;;;;;5.00;3.93;;;15.90;12.70;;;;;;6091639;23;20408;-79
2021/04/23 12:20:29;;;;;;;7.50;3.97;;;15.70;12.10;;;;;;6082114;23;20888;-78
2021/04/23 12:22:56;;;;;;;5.67;4.40;;;15.90;11.00;;;;;;6073240;23;20400;-79
2021/04/23 12:25:36;;;;;;;5.60;4.07;;;15.70;11.30;;;;;;6076658;23;20385;-77
2021/04/23 12:28:25;;;;;;;7.60;5.40;;;16.00;11.60;;;;;;6079786;23;20474;-78
2021/04/23 12:30:56;;;;;;;9.30;4.97;;;16.00;12.30;;;;;;6079035;23;20384;-79
2021/04/23 12:33:23;;;;;;;7.20;4.90;;;16.40;11.60;;;;;;6073609;23;20365;-78
2021/04/23 12:35:51;;;;;;;10.30;4.50;;;16.50;11.80;;;;;;6083894;23;20429;-82
2021/04/23 12:38:35;;;;;;;5.70;4.37;;;16.70;11.20;;;;;;6082274;23;20456;-78
2021/04/23 12:41:14;;;;;;;7.13;5.30;;;16.70;11.40;;;;;;6072611;23;20501;-79
2021/04/23 12:43:42;;;;;;;12.27;5.40;;;16.70;11.10;;;;;;6075569;23;20428;-77
2021/04/23 12:46:24;;;;;;;9.20;4.50;;;16.30;11.40;;;;;;6076223;23;20388;-77
2021/04/23 12:48:59;;;;;;;6.83;4.30;;;16.70;11.80;;;;;;6075630;23;20373;-76
2021/04/23 12:51:26;;;;;;;7.23;4.83;;;17.00;11.50;;;;;;6074863;23;20413;-77
2021/04/23 12:53:53;;;;;;;6.70;4.97;;;17.40;10.30;;;;;;6075084;23;20517;-77
2021/04/23 12:56:22;;;;;;;8.03;4.67;;;17.30;10.20;;;;;;6071944;23;20998;-77
2021/04/23 12:58:50;;;;;;;7.23;4.57;;;17.30;10.80;;;;;;6073366;23;20410;-76
2021/04/23 13:01:16;;;;;;;8.10;4.73;;;17.40;10.30;;;;;;6073933;23;20443;-76